sensor_id;sensor_type;location;lat;lon;timestamp;P1;durP1;ratioP1;P2;durP2;ratioP2
30185;SDS011;31152;49.190;8.122;2023-07-31T00:00:51;5.25;;;2.00;;
30185;SDS011;31152;49.190;8.122;2023-07-31T00:03:21;6.55;;;2.10;;
30185;SDS011;31152;49.190;8.122;2023-07-31T00:05:48;6.88;;;1.70;;
30185;SDS011;31152;49.190;8.122;2023-07-31T00:08:15;4.97;;;1.70;;
30185;SDS011;31152;49.190;8.122;2023-07-31T00:10:42;9.60;;;2.45;;
30185;SDS011;31152;49.190;8.122;2023-07-31T00:13:09;5.50;;;1.95;;
30185;SDS011;31152;49.190;8.122;2023-07-31T00:15:36;6.28;;;1.73;;
30185;SDS011;31152;49.190;8.122;2023-07-31T00:18:05;5.00;;;1.50;;
30185;SDS011;31152;49.190;8.122;2023-07-31T00:20:32;9.45;;;1.80;;
30185;SDS011;31152;49.190;8.122;2023-07-31T00:22:59;6.70;;;1.75;;
30185;SDS011;31152;49.190;8.122;2023-07-31T00:25:30;8.27;;;1.75;;
30185;SDS011;31152;49.190;8.122;2023-07-31T00:27:57;5.95;;;1.90;;
30185;SDS011;31152;49.190;8.122;2023-07-31T00:30:23;4.53;;;1.50;;
30185;SDS011;31152;49.190;8.122;2023-07-31T00:32:51;5.22;;;1.63;;
30185;SDS011;31152;49.190;8.122;2023-07-31T00:35:18;5.53;;;1.75;;
30185;SDS011;31152;49.190;8.122;2023-07-31T00:37:44;5.07;;;1.50;;
30185;SDS011;31152;49.190;8.122;2023-07-31T00:40:11;7.15;;;1.80;;
30185;SDS011;31152;49.190;8.122;2023-07-31T00:42:40;6.50;;;2.03;;
30185;SDS011;31152;49.190;8.122;2023-07-31T00:45:06;5.70;;;2.20;;
30185;SDS011;31152;49.190;8.122;2023-07-31T00:47:33;7.03;;;1.95;;
30185;SDS011;31152;49.190;8.122;2023-07-31T00:50:00;7.70;;;2.30;;
30185;SDS011;31152;49.190;8.122;2023-07-31T00:52:27;7.57;;;2.03;;
30185;SDS011;31152;49.190;8.122;2023-07-31T00:54:59;5.45;;;1.70;;
30185;SDS011;31152;49.190;8.122;2023-07-31T00:57:26;6.50;;;1.50;;
30185;SDS011;31152;49.190;8.122;2023-07-31T00:59:53;7.20;;;2.05;;
30185;SDS011;31152;49.190;8.122;2023-07-31T01:02:22;6.57;;;1.98;;
30185;SDS011;31152;49.190;8.122;2023-07-31T01:04:49;4.57;;;1.60;;
30185;SDS011;31152;49.190;8.122;2023-07-31T01:07:31;9.50;;;1.80;;
30185;SDS011;31152;49.190;8.122;2023-07-31T01:10:06;6.95;;;1.88;;
30185;SDS011;31152;49.190;8.122;2023-07-31T01:12:41;9.43;;;2.22;;
30185;SDS011;31152;49.190;8.122;2023-07-31T01:15:09;6.07;;;1.73;;
30185;SDS011;31152;49.190;8.122;2023-07-31T01:17:41;5.55;;;1.65;;
30185;SDS011;31152;49.190;8.122;2023-07-31T01:25:53;5.05;;;2.05;;
30185;SDS011;31152;49.190;8.122;2023-07-31T01:28:53;5.70;;;1.83;;
30185;SDS011;31152;49.190;8.122;2023-07-31T01:31:33;8.68;;;1.90;;
30185;SDS011;31152;49.190;8.122;2023-07-31T01:34:02;7.47;;;2.10;;
30185;SDS011;31152;49.190;8.122;2023-07-31T01:36:30;6.00;;;1.88;;
30185;SDS011;31152;49.190;8.122;2023-07-31T01:39:01;6.25;;;2.00;;
30185;SDS011;31152;49.190;8.122;2023-07-31T01:41:29;10.93;;;2.28;;
30185;SDS011;31152;49.190;8.122;2023-07-31T01:43:56;7.00;;;1.77;;
30185;SDS011;31152;49.190;8.122;2023-07-31T01:46:25;7.78;;;1.95;;
30185;SDS011;31152;49.190;8.122;2023-07-31T01:48:52;12.50;;;1.80;;
30185;SDS011;31152;49.190;8.122;2023-07-31T01:51:21;9.27;;;2.22;;
30185;SDS011;31152;49.190;8.122;2023-07-31T01:53:47;6.05;;;1.75;;
30185;SDS011;31152;49.190;8.122;2023-07-31T01:56:14;5.97;;;1.83;;
30185;SDS011;31152;49.190;8.122;2023-07-31T01:58:41;6.88;;;2.08;;
30185;SDS011;31152;49.190;8.122;2023-07-31T02:01:08;10.50;;;2.47;;
30185;SDS011;31152;49.190;8.122;2023-07-31T02:03:34;7.25;;;2.30;;
30185;SDS011;31152;49.190;8.122;2023-07-31T02:06:01;6.13;;;2.05;;
30185;SDS011;31152;49.190;8.122;2023-07-31T02:08:28;7.53;;;2.00;;
30185;SDS011;31152;49.190;8.122;2023-07-31T02:10:55;4.25;;;1.80;;
30185;SDS011;31152;49.190;8.122;2023-07-31T02:13:22;8.02;;;2.20;;
30185;SDS011;31152;49.190;8.122;2023-07-31T02:15:49;6.88;;;1.77;;
30185;SDS011;31152;49.190;8.122;2023-07-31T02:18:16;7.32;;;1.58;;
30185;SDS011;31152;49.190;8.122;2023-07-31T02:20:52;7.22;;;1.90;;
30185;SDS011;31152;49.190;8.122;2023-07-31T02:23:19;7.35;;;1.77;;
30185;SDS011;31152;49.190;8.122;2023-07-31T02:25:46;11.10;;;2.28;;
30185;SDS011;31152;49.190;8.122;2023-07-31T02:28:13;8.55;;;2.38;;
30185;SDS011;31152;49.190;8.122;2023-07-31T02:30:39;6.13;;;1.90;;
30185;SDS011;31152;49.190;8.122;2023-07-31T02:33:09;4.88;;;1.98;;
30185;SDS011;31152;49.190;8.122;2023-07-31T02:35:36;5.30;;;1.67;;
30185;SDS011;31152;49.190;8.122;2023-07-31T02:38:03;6.93;;;1.90;;
30185;SDS011;31152;49.190;8.122;2023-07-31T02:40:30;6.93;;;1.95;;
30185;SDS011;31152;49.190;8.122;2023-07-31T02:42:57;8.25;;;1.98;;
30185;SDS011;31152;49.190;8.122;2023-07-31T02:45:23;5.05;;;1.90;;
30185;SDS011;31152;49.190;8.122;2023-07-31T02:47:50;6.45;;;2.20;;
30185;SDS011;31152;49.190;8.122;2023-07-31T02:50:19;12.38;;;1.90;;
30185;SDS011;31152;49.190;8.122;2023-07-31T02:52:46;12.60;;;2.50;;
30185;SDS011;31152;49.190;8.122;2023-07-31T02:55:13;4.88;;;1.83;;
30185;SDS011;31152;49.190;8.122;2023-07-31T02:57:40;9.50;;;1.90;;
30185;SDS011;31152;49.190;8.122;2023-07-31T03:00:09;5.32;;;1.75;;
30185;SDS011;31152;49.190;8.122;2023-07-31T03:02:36;6.43;;;1.98;;
30185;SDS011;31152;49.190;8.122;2023-07-31T03:05:05;5.72;;;1.90;;
30185;SDS011;31152;49.190;8.122;2023-07-31T03:07:32;5.43;;;2.03;;
30185;SDS011;31152;49.190;8.122;2023-07-31T03:09:59;6.53;;;2.42;;
30185;SDS011;31152;49.190;8.122;2023-07-31T03:12:28;8.73;;;1.92;;
30185;SDS011;31152;49.190;8.122;2023-07-31T03:14:58;5.00;;;1.98;;
30185;SDS011;31152;49.190;8.122;2023-07-31T03:17:25;8.25;;;2.20;;
30185;SDS011;31152;49.190;8.122;2023-07-31T03:19:52;4.40;;;1.92;;
30185;SDS011;31152;49.190;8.122;2023-07-31T03:22:18;4.07;;;2.33;;
30185;SDS011;31152;49.190;8.122;2023-07-31T03:24:45;8.38;;;2.45;;
30185;SDS011;31152;49.190;8.122;2023-07-31T03:27:12;6.07;;;2.10;;
30185;SDS011;31152;49.190;8.122;2023-07-31T03:29:41;6.80;;;2.00;;
30185;SDS011;31152;49.190;8.122;2023-07-31T03:32:07;7.25;;;2.45;;
30185;SDS011;31152;49.190;8.122;2023-07-31T03:34:37;6.38;;;2.28;;
30185;SDS011;31152;49.190;8.122;2023-07-31T03:37:06;6.40;;;2.25;;
30185;SDS011;31152;49.190;8.122;2023-07-31T03:39:32;5.72;;;2.10;;
30185;SDS011;31152;49.190;8.122;2023-07-31T03:42:02;8.52;;;2.28;;
30185;SDS011;31152;49.190;8.122;2023-07-31T03:44:29;7.55;;;2.10;;
30185;SDS011;31152;49.190;8.122;2023-07-31T03:46:55;5.60;;;2.22;;
30185;SDS011;31152;49.190;8.122;2023-07-31T03:49:25;7.05;;;2.22;;
30185;SDS011;31152;49.190;8.122;2023-07-31T03:51:51;6.05;;;2.08;;
30185;SDS011;31152;49.190;8.122;2023-07-31T03:54:22;10.63;;;2.60;;
30185;SDS011;31152;49.190;8.122;2023-07-31T03:56:51;4.93;;;1.98;;
30185;SDS011;31152;49.190;8.122;2023-07-31T03:59:18;7.03;;;2.10;;
30185;SDS011;31152;49.190;8.122;2023-07-31T04:01:45;8.13;;;2.15;;
30185;SDS011;31152;49.190;8.122;2023-07-31T04:04:12;5.50;;;2.45;;
30185;SDS011;31152;49.190;8.122;2023-07-31T04:06:38;6.43;;;2.30;;
30185;SDS011;31152;49.190;8.122;2023-07-31T04:09:08;7.80;;;1.75;;
30185;SDS011;31152;49.190;8.122;2023-07-31T04:11:36;8.20;;;2.13;;
30185;SDS011;31152;49.190;8.122;2023-07-31T04:14:03;8.48;;;3.17;;
30185;SDS011;31152;49.190;8.122;2023-07-31T04:16:30;6.85;;;2.42;;
30185;SDS011;31152;49.190;8.122;2023-07-31T04:18:57;12.05;;;2.92;;
30185;SDS011;31152;49.190;8.122;2023-07-31T04:21:24;10.00;;;2.30;;
30185;SDS011;31152;49.190;8.122;2023-07-31T04:23:50;6.50;;;2.40;;
30185;SDS011;31152;49.190;8.122;2023-07-31T04:26:22;6.57;;;2.55;;
30185;SDS011;31152;49.190;8.122;2023-07-31T04:28:50;8.80;;;2.58;;
30185;SDS011;31152;49.190;8.122;2023-07-31T04:31:16;5.20;;;2.00;;
30185;SDS011;31152;49.190;8.122;2023-07-31T04:33:43;6.70;;;2.05;;
30185;SDS011;31152;49.190;8.122;2023-07-31T04:36:10;6.78;;;2.13;;
30185;SDS011;31152;49.190;8.122;2023-07-31T04:38:37;7.05;;;2.30;;
30185;SDS011;31152;49.190;8.122;2023-07-31T04:41:07;6.47;;;2.40;;
30185;SDS011;31152;49.190;8.122;2023-07-31T04:43:34;8.02;;;2.35;;
30185;SDS011;31152;49.190;8.122;2023-07-31T04:46:01;7.93;;;2.45;;
30185;SDS011;31152;49.190;8.122;2023-07-31T04:48:27;7.15;;;2.53;;
30185;SDS011;31152;49.190;8.122;2023-07-31T04:50:54;8.43;;;2.38;;
30185;SDS011;31152;49.190;8.122;2023-07-31T04:53:21;5.40;;;2.13;;
30185;SDS011;31152;49.190;8.122;2023-07-31T04:55:47;7.82;;;2.05;;
30185;SDS011;31152;49.190;8.122;2023-07-31T04:58:16;5.78;;;2.08;;
30185;SDS011;31152;49.190;8.122;2023-07-31T05:00:45;10.23;;;2.08;;
30185;SDS011;31152;49.190;8.122;2023-07-31T05:03:12;7.50;;;2.35;;
30185;SDS011;31152;49.190;8.122;2023-07-31T05:05:39;13.13;;;2.65;;
30185;SDS011;31152;49.190;8.122;2023-07-31T05:08:06;4.90;;;2.00;;
30185;SDS011;31152;49.190;8.122;2023-07-31T05:10:33;8.30;;;2.30;;
30185;SDS011;31152;49.190;8.122;2023-07-31T05:12:59;5.68;;;2.42;;
30185;SDS011;31152;49.190;8.122;2023-07-31T05:15:26;6.60;;;2.58;;
30185;SDS011;31152;49.190;8.122;2023-07-31T05:17:53;8.73;;;2.70;;
30185;SDS011;31152;49.190;8.122;2023-07-31T05:20:22;6.97;;;2.35;;
30185;SDS011;31152;49.190;8.122;2023-07-31T05:22:51;8.07;;;2.20;;
30185;SDS011;31152;49.190;8.122;2023-07-31T05:25:21;6.57;;;2.40;;
30185;SDS011;31152;49.190;8.122;2023-07-31T05:27:50;8.30;;;3.00;;
30185;SDS011;31152;49.190;8.122;2023-07-31T05:30:17;7.78;;;2.47;;
30185;SDS011;31152;49.190;8.122;2023-07-31T05:32:44;5.53;;;2.03;;
30185;SDS011;31152;49.190;8.122;2023-07-31T05:35:13;7.32;;;2.50;;
30185;SDS011;31152;49.190;8.122;2023-07-31T05:37:42;6.70;;;2.42;;
30185;SDS011;31152;49.190;8.122;2023-07-31T05:40:09;8.38;;;2.45;;
30185;SDS011;31152;49.190;8.122;2023-07-31T05:42:36;10.02;;;2.50;;
30185;SDS011;31152;49.190;8.122;2023-07-31T05:45:06;8.40;;;2.22;;
30185;SDS011;31152;49.190;8.122;2023-07-31T05:47:33;11.35;;;2.20;;
30185;SDS011;31152;49.190;8.122;2023-07-31T05:50:02;8.68;;;2.33;;
30185;SDS011;31152;49.190;8.122;2023-07-31T05:52:32;9.43;;;2.80;;
30185;SDS011;31152;49.190;8.122;2023-07-31T05:54:59;7.03;;;2.13;;
30185;SDS011;31152;49.190;8.122;2023-07-31T05:57:29;7.82;;;2.35;;
30185;SDS011;31152;49.190;8.122;2023-07-31T05:59:55;8.10;;;2.15;;
30185;SDS011;31152;49.190;8.122;2023-07-31T06:02:22;8.15;;;2.38;;
30185;SDS011;31152;49.190;8.122;2023-07-31T06:04:54;8.38;;;2.53;;
30185;SDS011;31152;49.190;8.122;2023-07-31T06:07:21;8.57;;;2.70;;
30185;SDS011;31152;49.190;8.122;2023-07-31T06:09:48;8.38;;;2.65;;
30185;SDS011;31152;49.190;8.122;2023-07-31T06:12:17;6.45;;;2.38;;
30185;SDS011;31152;49.190;8.122;2023-07-31T06:14:46;7.85;;;2.67;;
30185;SDS011;31152;49.190;8.122;2023-07-31T06:17:13;7.10;;;2.20;;
30185;SDS011;31152;49.190;8.122;2023-07-31T06:19:40;9.63;;;3.03;;
30185;SDS011;31152;49.190;8.122;2023-07-31T06:22:07;8.68;;;2.20;;
30185;SDS011;31152;49.190;8.122;2023-07-31T06:24:33;9.38;;;2.55;;
30185;SDS011;31152;49.190;8.122;2023-07-31T06:27:00;8.88;;;2.25;;
30185;SDS011;31152;49.190;8.122;2023-07-31T06:29:29;6.65;;;2.25;;
30185;SDS011;31152;49.190;8.122;2023-07-31T06:31:58;8.02;;;2.90;;
30185;SDS011;31152;49.190;8.122;2023-07-31T06:34:29;8.23;;;2.33;;
30185;SDS011;31152;49.190;8.122;2023-07-31T06:36:56;5.93;;;2.22;;
30185;SDS011;31152;49.190;8.122;2023-07-31T06:39:23;6.25;;;2.40;;
30185;SDS011;31152;49.190;8.122;2023-07-31T06:41:50;7.15;;;2.25;;
30185;SDS011;31152;49.190;8.122;2023-07-31T06:44:17;5.70;;;2.17;;
30185;SDS011;31152;49.190;8.122;2023-07-31T06:46:43;8.63;;;2.92;;
30185;SDS011;31152;49.190;8.122;2023-07-31T06:49:12;10.82;;;2.35;;
30185;SDS011;31152;49.190;8.122;2023-07-31T06:51:45;10.95;;;2.40;;
30185;SDS011;31152;49.190;8.122;2023-07-31T06:54:12;9.57;;;2.58;;
30185;SDS011;31152;49.190;8.122;2023-07-31T06:56:38;7.72;;;2.17;;
30185;SDS011;31152;49.190;8.122;2023-07-31T06:59:06;6.38;;;2.13;;
30185;SDS011;31152;49.190;8.122;2023-07-31T07:01:36;8.27;;;2.40;;
30185;SDS011;31152;49.190;8.122;2023-07-31T07:04:03;7.70;;;2.53;;
30185;SDS011;31152;49.190;8.122;2023-07-31T07:06:30;7.97;;;2.58;;
30185;SDS011;31152;49.190;8.122;2023-07-31T07:08:56;7.60;;;2.67;;
30185;SDS011;31152;49.190;8.122;2023-07-31T07:11:23;6.97;;;2.35;;
30185;SDS011;31152;49.190;8.122;2023-07-31T07:13:50;9.90;;;2.40;;
30185;SDS011;31152;49.190;8.122;2023-07-31T07:16:17;5.43;;;2.15;;
30185;SDS011;31152;49.190;8.122;2023-07-31T07:18:44;7.47;;;2.78;;
30185;SDS011;31152;49.190;8.122;2023-07-31T07:21:28;7.97;;;2.47;;
30185;SDS011;31152;49.190;8.122;2023-07-31T07:23:54;9.43;;;2.13;;
30185;SDS011;31152;49.190;8.122;2023-07-31T07:26:23;5.40;;;2.40;;
30185;SDS011;31152;49.190;8.122;2023-07-31T07:28:50;15.38;;;3.22;;
30185;SDS011;31152;49.190;8.122;2023-07-31T07:31:17;5.78;;;2.65;;
30185;SDS011;31152;49.190;8.122;2023-07-31T07:33:46;12.23;;;2.47;;
30185;SDS011;31152;49.190;8.122;2023-07-31T07:36:13;6.68;;;2.17;;
30185;SDS011;31152;49.190;8.122;2023-07-31T07:38:43;4.88;;;2.22;;
30185;SDS011;31152;49.190;8.122;2023-07-31T07:41:09;7.70;;;2.67;;
30185;SDS011;31152;49.190;8.122;2023-07-31T07:43:41;8.68;;;2.30;;
30185;SDS011;31152;49.190;8.122;2023-07-31T07:46:08;6.28;;;2.15;;
30185;SDS011;31152;49.190;8.122;2023-07-31T07:48:37;7.18;;;2.15;;
30185;SDS011;31152;49.190;8.122;2023-07-31T07:51:06;10.52;;;2.85;;
30185;SDS011;31152;49.190;8.122;2023-07-31T07:53:35;8.23;;;2.67;;
30185;SDS011;31152;49.190;8.122;2023-07-31T07:56:04;5.75;;;2.17;;
30185;SDS011;31152;49.190;8.122;2023-07-31T07:58:31;8.45;;;2.75;;
30185;SDS011;31152;49.190;8.122;2023-07-31T08:00:57;7.63;;;2.55;;
30185;SDS011;31152;49.190;8.122;2023-07-31T08:03:24;5.95;;;2.38;;
30185;SDS011;31152;49.190;8.122;2023-07-31T08:05:57;9.15;;;2.58;;
30185;SDS011;31152;49.190;8.122;2023-07-31T08:08:25;7.68;;;2.30;;
30185;SDS011;31152;49.190;8.122;2023-07-31T08:10:57;5.20;;;2.50;;
30185;SDS011;31152;49.190;8.122;2023-07-31T08:13:23;8.07;;;2.47;;
30185;SDS011;31152;49.190;8.122;2023-07-31T08:15:50;10.02;;;2.75;;
30185;SDS011;31152;49.190;8.122;2023-07-31T08:18:17;9.00;;;2.58;;
30185;SDS011;31152;49.190;8.122;2023-07-31T08:20:47;8.77;;;2.42;;
30185;SDS011;31152;49.190;8.122;2023-07-31T08:23:13;6.75;;;2.97;;
30185;SDS011;31152;49.190;8.122;2023-07-31T08:25:40;8.48;;;2.88;;
30185;SDS011;31152;49.190;8.122;2023-07-31T08:28:07;7.70;;;2.67;;
30185;SDS011;31152;49.190;8.122;2023-07-31T08:30:34;6.25;;;2.55;;
30185;SDS011;31152;49.190;8.122;2023-07-31T08:33:01;6.55;;;2.55;;
30185;SDS011;31152;49.190;8.122;2023-07-31T08:35:28;7.15;;;3.00;;
30185;SDS011;31152;49.190;8.122;2023-07-31T08:37:55;9.57;;;2.58;;
30185;SDS011;31152;49.190;8.122;2023-07-31T08:40:21;9.80;;;3.13;;
30185;SDS011;31152;49.190;8.122;2023-07-31T08:42:49;8.18;;;2.20;;
30185;SDS011;31152;49.190;8.122;2023-07-31T08:45:25;7.85;;;2.65;;
30185;SDS011;31152;49.190;8.122;2023-07-31T08:47:52;6.82;;;3.08;;
30185;SDS011;31152;49.190;8.122;2023-07-31T08:50:21;8.25;;;2.67;;
30185;SDS011;31152;49.190;8.122;2023-07-31T08:52:51;8.75;;;2.67;;
30185;SDS011;31152;49.190;8.122;2023-07-31T08:55:24;9.20;;;2.67;;
30185;SDS011;31152;49.190;8.122;2023-07-31T08:57:53;4.90;;;2.08;;
30185;SDS011;31152;49.190;8.122;2023-07-31T09:00:21;7.28;;;2.88;;
30185;SDS011;31152;49.190;8.122;2023-07-31T09:03:03;6.88;;;2.70;;
30185;SDS011;31152;49.190;8.122;2023-07-31T09:05:42;9.32;;;3.03;;
30185;SDS011;31152;49.190;8.122;2023-07-31T09:08:12;6.10;;;2.85;;
30185;SDS011;31152;49.190;8.122;2023-07-31T09:10:42;8.27;;;3.22;;
30185;SDS011;31152;49.190;8.122;2023-07-31T09:13:09;13.65;;;4.82;;
30185;SDS011;31152;49.190;8.122;2023-07-31T09:15:38;8.38;;;3.58;;
30185;SDS011;31152;49.190;8.122;2023-07-31T09:18:07;7.97;;;2.58;;
30185;SDS011;31152;49.190;8.122;2023-07-31T09:20:34;10.40;;;3.38;;
30185;SDS011;31152;49.190;8.122;2023-07-31T09:23:13;7.97;;;2.95;;
30185;SDS011;31152;49.190;8.122;2023-07-31T09:25:44;6.57;;;2.60;;
30185;SDS011;31152;49.190;8.122;2023-07-31T09:28:12;7.68;;;2.65;;
30185;SDS011;31152;49.190;8.122;2023-07-31T09:30:50;4.78;;;2.40;;
30185;SDS011;31152;49.190;8.122;2023-07-31T09:33:19;8.90;;;3.00;;
30185;SDS011;31152;49.190;8.122;2023-07-31T09:35:48;4.95;;;2.78;;
30185;SDS011;31152;49.190;8.122;2023-07-31T09:38:15;8.02;;;3.15;;
30185;SDS011;31152;49.190;8.122;2023-07-31T09:40:45;6.13;;;2.83;;
30185;SDS011;31152;49.190;8.122;2023-07-31T09:43:21;6.78;;;3.08;;
30185;SDS011;31152;49.190;8.122;2023-07-31T09:45:52;11.65;;;3.45;;
30185;SDS011;31152;49.190;8.122;2023-07-31T09:48:23;8.18;;;3.35;;
30185;SDS011;31152;49.190;8.122;2023-07-31T09:50:52;6.03;;;2.75;;
30185;SDS011;31152;49.190;8.122;2023-07-31T09:53:27;7.05;;;2.90;;
30185;SDS011;31152;49.190;8.122;2023-07-31T09:55:58;12.93;;;3.22;;
30185;SDS011;31152;49.190;8.122;2023-07-31T09:58:25;11.13;;;3.10;;
30185;SDS011;31152;49.190;8.122;2023-07-31T10:00:55;6.18;;;2.83;;
30185;SDS011;31152;49.190;8.122;2023-07-31T10:03:24;6.28;;;2.70;;
30185;SDS011;31152;49.190;8.122;2023-07-31T10:05:53;13.38;;;3.50;;
30185;SDS011;31152;49.190;8.122;2023-07-31T10:08:23;9.07;;;2.78;;
30185;SDS011;31152;49.190;8.122;2023-07-31T10:10:58;11.90;;;3.25;;
30185;SDS011;31152;49.190;8.122;2023-07-31T10:13:27;6.80;;;2.58;;
30185;SDS011;31152;49.190;8.122;2023-07-31T10:15:56;10.15;;;3.03;;
30185;SDS011;31152;49.190;8.122;2023-07-31T10:18:28;9.67;;;3.00;;
30185;SDS011;31152;49.190;8.122;2023-07-31T10:20:55;6.50;;;2.88;;
30185;SDS011;31152;49.190;8.122;2023-07-31T10:23:25;7.85;;;2.80;;
30185;SDS011;31152;49.190;8.122;2023-07-31T10:25:53;6.70;;;2.90;;
30185;SDS011;31152;49.190;8.122;2023-07-31T10:28:22;7.28;;;2.97;;
30185;SDS011;31152;49.190;8.122;2023-07-31T10:30:51;7.07;;;2.75;;
30185;SDS011;31152;49.190;8.122;2023-07-31T10:33:18;7.53;;;2.72;;
30185;SDS011;31152;49.190;8.122;2023-07-31T10:35:48;10.07;;;3.05;;
30185;SDS011;31152;49.190;8.122;2023-07-31T10:38:15;11.40;;;3.40;;
30185;SDS011;31152;49.190;8.122;2023-07-31T10:40:44;8.43;;;2.72;;
30185;SDS011;31152;49.190;8.122;2023-07-31T10:43:23;6.97;;;2.60;;
30185;SDS011;31152;49.190;8.122;2023-07-31T10:45:51;9.57;;;3.03;;
30185;SDS011;31152;49.190;8.122;2023-07-31T10:48:19;7.97;;;3.30;;
30185;SDS011;31152;49.190;8.122;2023-07-31T10:50:51;9.93;;;2.80;;
30185;SDS011;31152;49.190;8.122;2023-07-31T10:53:24;7.72;;;2.65;;
30185;SDS011;31152;49.190;8.122;2023-07-31T10:55:59;8.48;;;3.00;;
30185;SDS011;31152;49.190;8.122;2023-07-31T10:58:32;9.77;;;3.03;;
30185;SDS011;31152;49.190;8.122;2023-07-31T11:01:00;6.60;;;2.70;;
30185;SDS011;31152;49.190;8.122;2023-07-31T11:03:41;9.15;;;3.25;;
30185;SDS011;31152;49.190;8.122;2023-07-31T11:06:09;6.43;;;2.55;;
30185;SDS011;31152;49.190;8.122;2023-07-31T11:08:41;10.88;;;3.45;;
30185;SDS011;31152;49.190;8.122;2023-07-31T11:11:12;6.13;;;2.80;;
30185;SDS011;31152;49.190;8.122;2023-07-31T11:16:16;8.00;;;2.90;;
30185;SDS011;31152;49.190;8.122;2023-07-31T11:18:44;8.38;;;3.50;;
30185;SDS011;31152;49.190;8.122;2023-07-31T11:21:12;5.53;;;2.92;;
30185;SDS011;31152;49.190;8.122;2023-07-31T11:23:40;6.70;;;2.80;;
30185;SDS011;31152;49.190;8.122;2023-07-31T11:26:07;12.23;;;2.75;;
30185;SDS011;31152;49.190;8.122;2023-07-31T11:28:36;6.90;;;2.78;;
30185;SDS011;31152;49.190;8.122;2023-07-31T11:31:08;7.97;;;3.05;;
30185;SDS011;31152;49.190;8.122;2023-07-31T11:33:37;9.27;;;3.50;;
30185;SDS011;31152;49.190;8.122;2023-07-31T11:36:04;9.50;;;2.90;;
30185;SDS011;31152;49.190;8.122;2023-07-31T11:38:33;11.05;;;2.92;;
30185;SDS011;31152;49.190;8.122;2023-07-31T11:41:01;9.18;;;3.08;;
30185;SDS011;31152;49.190;8.122;2023-07-31T11:43:30;7.07;;;2.70;;
30185;SDS011;31152;49.190;8.122;2023-07-31T11:45:59;6.60;;;2.80;;
30185;SDS011;31152;49.190;8.122;2023-07-31T11:48:30;6.95;;;2.80;;
30185;SDS011;31152;49.190;8.122;2023-07-31T11:51:01;7.22;;;3.00;;
30185;SDS011;31152;49.190;8.122;2023-07-31T11:56:08;6.05;;;2.70;;
30185;SDS011;31152;49.190;8.122;2023-07-31T11:58:40;7.82;;;2.78;;
30185;SDS011;31152;49.190;8.122;2023-07-31T12:01:09;6.18;;;2.65;;
30185;SDS011;31152;49.190;8.122;2023-07-31T12:03:36;10.82;;;2.70;;
30185;SDS011;31152;49.190;8.122;2023-07-31T12:06:04;6.38;;;2.72;;
30185;SDS011;31152;49.190;8.122;2023-07-31T12:08:31;7.32;;;2.67;;
30185;SDS011;31152;49.190;8.122;2023-07-31T12:11:02;4.10;;;2.47;;
30185;SDS011;31152;49.190;8.122;2023-07-31T12:13:33;5.75;;;2.58;;
30185;SDS011;31152;49.190;8.122;2023-07-31T12:16:00;9.20;;;3.03;;
30185;SDS011;31152;49.190;8.122;2023-07-31T12:18:30;5.85;;;2.38;;
30185;SDS011;31152;49.190;8.122;2023-07-31T12:21:04;7.53;;;2.65;;
30185;SDS011;31152;49.190;8.122;2023-07-31T12:23:34;9.02;;;2.97;;
30185;SDS011;31152;49.190;8.122;2023-07-31T12:26:16;7.95;;;3.10;;
30185;SDS011;31152;49.190;8.122;2023-07-31T12:28:49;4.25;;;2.88;;
30185;SDS011;31152;49.190;8.122;2023-07-31T12:31:18;6.30;;;2.72;;
30185;SDS011;31152;49.190;8.122;2023-07-31T12:33:48;5.85;;;2.65;;
30185;SDS011;31152;49.190;8.122;2023-07-31T12:36:23;8.57;;;2.78;;
30185;SDS011;31152;49.190;8.122;2023-07-31T12:38:56;5.72;;;2.90;;
30185;SDS011;31152;49.190;8.122;2023-07-31T12:41:24;5.30;;;2.60;;
30185;SDS011;31152;49.190;8.122;2023-07-31T12:43:53;8.68;;;3.20;;
30185;SDS011;31152;49.190;8.122;2023-07-31T12:46:20;8.35;;;2.55;;
30185;SDS011;31152;49.190;8.122;2023-07-31T12:48:47;9.00;;;3.20;;
30185;SDS011;31152;49.190;8.122;2023-07-31T12:51:14;7.50;;;2.90;;
30185;SDS011;31152;49.190;8.122;2023-07-31T12:53:41;10.48;;;3.47;;
30185;SDS011;31152;49.190;8.122;2023-07-31T12:56:08;6.50;;;2.80;;
30185;SDS011;31152;49.190;8.122;2023-07-31T12:58:39;8.48;;;2.80;;
30185;SDS011;31152;49.190;8.122;2023-07-31T13:01:06;7.25;;;2.90;;
30185;SDS011;31152;49.190;8.122;2023-07-31T13:03:33;9.23;;;3.08;;
30185;SDS011;31152;49.190;8.122;2023-07-31T13:06:00;4.40;;;2.60;;
30185;SDS011;31152;49.190;8.122;2023-07-31T13:08:27;5.70;;;2.85;;
30185;SDS011;31152;49.190;8.122;2023-07-31T13:10:54;9.05;;;3.47;;
30185;SDS011;31152;49.190;8.122;2023-07-31T13:13:21;6.00;;;2.60;;
30185;SDS011;31152;49.190;8.122;2023-07-31T13:15:51;6.57;;;2.67;;
30185;SDS011;31152;49.190;8.122;2023-07-31T13:18:20;5.30;;;2.55;;
30185;SDS011;31152;49.190;8.122;2023-07-31T13:20:49;8.13;;;2.55;;
30185;SDS011;31152;49.190;8.122;2023-07-31T13:23:16;5.45;;;2.95;;
30185;SDS011;31152;49.190;8.122;2023-07-31T13:25:43;7.47;;;3.28;;
30185;SDS011;31152;49.190;8.122;2023-07-31T13:28:10;7.15;;;3.22;;
30185;SDS011;31152;49.190;8.122;2023-07-31T13:30:39;8.30;;;3.00;;
30185;SDS011;31152;49.190;8.122;2023-07-31T13:33:08;9.52;;;3.03;;
30185;SDS011;31152;49.190;8.122;2023-07-31T13:35:50;6.35;;;2.83;;
30185;SDS011;31152;49.190;8.122;2023-07-31T13:38:20;11.15;;;3.03;;
30185;SDS011;31152;49.190;8.122;2023-07-31T13:40:46;7.70;;;3.47;;
30185;SDS011;31152;49.190;8.122;2023-07-31T13:43:13;9.20;;;3.30;;
30185;SDS011;31152;49.190;8.122;2023-07-31T13:45:40;9.35;;;3.10;;
30185;SDS011;31152;49.190;8.122;2023-07-31T13:48:07;8.55;;;3.13;;
30185;SDS011;31152;49.190;8.122;2023-07-31T13:50:34;10.45;;;2.72;;
30185;SDS011;31152;49.190;8.122;2023-07-31T13:53:03;5.85;;;2.72;;
30185;SDS011;31152;49.190;8.122;2023-07-31T13:55:32;8.07;;;2.78;;
30185;SDS011;31152;49.190;8.122;2023-07-31T13:58:01;4.72;;;2.60;;
30185;SDS011;31152;49.190;8.122;2023-07-31T14:00:33;6.00;;;2.65;;
30185;SDS011;31152;49.190;8.122;2023-07-31T14:03:01;7.85;;;2.92;;
30185;SDS011;31152;49.190;8.122;2023-07-31T14:05:30;7.50;;;2.58;;
30185;SDS011;31152;49.190;8.122;2023-07-31T14:07:57;8.05;;;2.97;;
30185;SDS011;31152;49.190;8.122;2023-07-31T14:10:24;8.68;;;2.65;;
30185;SDS011;31152;49.190;8.122;2023-07-31T14:12:53;6.82;;;2.90;;
30185;SDS011;31152;49.190;8.122;2023-07-31T14:15:20;7.72;;;3.08;;
30185;SDS011;31152;49.190;8.122;2023-07-31T14:17:47;10.50;;;2.63;;
30185;SDS011;31152;49.190;8.122;2023-07-31T14:20:15;6.00;;;2.85;;
30185;SDS011;31152;49.190;8.122;2023-07-31T14:22:42;7.38;;;2.63;;
30185;SDS011;31152;49.190;8.122;2023-07-31T14:25:09;6.00;;;3.10;;
30185;SDS011;31152;49.190;8.122;2023-07-31T14:27:36;6.50;;;2.60;;
30185;SDS011;31152;49.190;8.122;2023-07-31T14:30:04;6.72;;;2.67;;
30185;SDS011;31152;49.190;8.122;2023-07-31T14:32:31;7.95;;;2.95;;
30185;SDS011;31152;49.190;8.122;2023-07-31T14:35:00;9.32;;;3.05;;
30185;SDS011;31152;49.190;8.122;2023-07-31T14:37:28;4.68;;;2.53;;
30185;SDS011;31152;49.190;8.122;2023-07-31T14:40:09;4.22;;;2.20;;
30185;SDS011;31152;49.190;8.122;2023-07-31T14:42:40;6.60;;;2.88;;
30185;SDS011;31152;49.190;8.122;2023-07-31T14:45:07;6.85;;;3.13;;
30185;SDS011;31152;49.190;8.122;2023-07-31T14:47:35;7.38;;;2.95;;
30185;SDS011;31152;49.190;8.122;2023-07-31T14:50:03;6.85;;;2.78;;
30185;SDS011;31152;49.190;8.122;2023-07-31T14:52:30;6.22;;;2.88;;
30185;SDS011;31152;49.190;8.122;2023-07-31T14:54:57;7.28;;;2.85;;
30185;SDS011;31152;49.190;8.122;2023-07-31T14:57:23;6.10;;;2.50;;
30185;SDS011;31152;49.190;8.122;2023-07-31T14:59:52;7.35;;;3.10;;
30185;SDS011;31152;49.190;8.122;2023-07-31T15:02:19;5.47;;;2.78;;
30185;SDS011;31152;49.190;8.122;2023-07-31T15:04:46;8.50;;;3.25;;